sensor_id;sensor_type;location;lat;lon;timestamp;P1;durP1;ratioP1;P2;durP2;ratioP2
20468;SDS011;10393;52.460;13.322;2022-09-09T00:03:26;3.03;;;2.83;;
20468;SDS011;10393;52.460;13.322;2022-09-09T00:05:25;4.47;;;2.72;;
20468;SDS011;10393;52.460;13.322;2022-09-09T00:09:04;2.97;;;2.30;;
20468;SDS011;10393;52.460;13.322;2022-09-09T00:10:49;2.58;;;2.38;;
20468;SDS011;10393;52.460;13.322;2022-09-09T00:16:25;4.45;;;2.58;;
20468;SDS011;10393;52.460;13.322;2022-09-09T00:21:59;3.83;;;2.78;;
20468;SDS011;10393;52.460;13.322;2022-09-09T00:23:45;4.60;;;2.78;;
20468;SDS011;10393;52.460;13.322;2022-09-09T00:25:49;5.32;;;2.63;;
20468;SDS011;10393;52.460;13.322;2022-09-09T00:27:34;6.30;;;3.13;;
20468;SDS011;10393;52.460;13.322;2022-09-09T00:29:24;5.45;;;3.05;;
20468;SDS011;10393;52.460;13.322;2022-09-09T00:31:14;5.18;;;3.10;;
20468;SDS011;10393;52.460;13.322;2022-09-09T00:33:01;2.97;;;2.42;;
20468;SDS011;10393;52.460;13.322;2022-09-09T00:34:46;6.88;;;3.63;;
20468;SDS011;10393;52.460;13.322;2022-09-09T00:36:28;4.68;;;3.08;;
20468;SDS011;10393;52.460;13.322;2022-09-09T00:38:27;2.83;;;2.17;;
20468;SDS011;10393;52.460;13.322;2022-09-09T00:40:23;3.17;;;2.70;;
20468;SDS011;10393;52.460;13.322;2022-09-09T00:47:50;3.35;;;2.83;;
20468;SDS011;10393;52.460;13.322;2022-09-09T00:53:16;3.60;;;3.13;;
20468;SDS011;10393;52.460;13.322;2022-09-09T00:56:44;6.55;;;3.15;;
20468;SDS011;10393;52.460;13.322;2022-09-09T00:58:27;5.93;;;3.17;;
20468;SDS011;10393;52.460;13.322;2022-09-09T01:01:58;6.57;;;2.92;;
20468;SDS011;10393;52.460;13.322;2022-09-09T01:05:27;4.03;;;2.83;;
20468;SDS011;10393;52.460;13.322;2022-09-09T01:07:14;4.38;;;2.97;;
20468;SDS011;10393;52.460;13.322;2022-09-09T01:09:11;3.00;;;2.70;;
20468;SDS011;10393;52.460;13.322;2022-09-09T01:10:56;3.88;;;2.70;;
20468;SDS011;10393;52.460;13.322;2022-09-09T01:12:42;4.85;;;2.63;;
20468;SDS011;10393;52.460;13.322;2022-09-09T01:16:19;3.22;;;2.90;;
20468;SDS011;10393;52.460;13.322;2022-09-09T01:22:01;3.85;;;2.70;;
20468;SDS011;10393;52.460;13.322;2022-09-09T01:27:49;7.63;;;3.08;;
20468;SDS011;10393;52.460;13.322;2022-09-09T01:29:31;2.95;;;2.70;;
20468;SDS011;10393;52.460;13.322;2022-09-09T01:31:15;3.92;;;2.38;;
20468;SDS011;10393;52.460;13.322;2022-09-09T01:33:00;5.10;;;2.85;;
20468;SDS011;10393;52.460;13.322;2022-09-09T01:34:42;4.60;;;2.70;;
20468;SDS011;10393;52.460;13.322;2022-09-09T01:36:25;4.78;;;2.78;;
20468;SDS011;10393;52.460;13.322;2022-09-09T01:38:08;3.75;;;3.08;;
20468;SDS011;10393;52.460;13.322;2022-09-09T01:39:49;3.78;;;2.45;;
20468;SDS011;10393;52.460;13.322;2022-09-09T01:41:31;2.20;;;2.00;;
20468;SDS011;10393;52.460;13.322;2022-09-09T01:43:39;8.68;;;2.30;;
20468;SDS011;10393;52.460;13.322;2022-09-09T01:45:20;3.03;;;2.72;;
20468;SDS011;10393;52.460;13.322;2022-09-09T01:47:02;4.35;;;2.50;;
20468;SDS011;10393;52.460;13.322;2022-09-09T01:48:44;4.47;;;3.25;;
20468;SDS011;10393;52.460;13.322;2022-09-09T01:50:26;2.88;;;2.40;;
20468;SDS011;10393;52.460;13.322;2022-09-09T01:52:12;3.08;;;2.28;;
20468;SDS011;10393;52.460;13.322;2022-09-09T01:53:53;2.58;;;2.10;;
20468;SDS011;10393;52.460;13.322;2022-09-09T01:55:38;2.70;;;2.25;;
20468;SDS011;10393;52.460;13.322;2022-09-09T01:57:26;2.58;;;2.38;;
20468;SDS011;10393;52.460;13.322;2022-09-09T02:03:00;3.95;;;2.22;;
20468;SDS011;10393;52.460;13.322;2022-09-09T02:04:54;2.78;;;2.05;;
20468;SDS011;10393;52.460;13.322;2022-09-09T02:06:38;2.92;;;2.67;;
20468;SDS011;10393;52.460;13.322;2022-09-09T02:10:29;3.63;;;2.67;;
20468;SDS011;10393;52.460;13.322;2022-09-09T02:12:22;2.75;;;2.53;;
20468;SDS011;10393;52.460;13.322;2022-09-09T02:14:10;4.85;;;2.35;;
20468;SDS011;10393;52.460;13.322;2022-09-09T02:17:46;2.75;;;2.20;;
20468;SDS011;10393;52.460;13.322;2022-09-09T02:19:39;2.58;;;2.38;;
20468;SDS011;10393;52.460;13.322;2022-09-09T02:21:33;2.88;;;2.33;;
20468;SDS011;10393;52.460;13.322;2022-09-09T02:23:15;7.82;;;2.60;;
20468;SDS011;10393;52.460;13.322;2022-09-09T02:24:59;5.07;;;2.00;;
20468;SDS011;10393;52.460;13.322;2022-09-09T02:26:44;9.18;;;2.53;;
20468;SDS011;10393;52.460;13.322;2022-09-09T02:28:29;6.25;;;2.45;;
20468;SDS011;10393;52.460;13.322;2022-09-09T02:30:12;3.60;;;2.20;;
20468;SDS011;10393;52.460;13.322;2022-09-09T02:32:01;2.60;;;2.40;;
20468;SDS011;10393;52.460;13.322;2022-09-09T02:33:49;3.88;;;2.35;;
20468;SDS011;10393;52.460;13.322;2022-09-09T02:35:32;3.33;;;2.17;;
20468;SDS011;10393;52.460;13.322;2022-09-09T02:37:18;2.92;;;2.10;;
20468;SDS011;10393;52.460;13.322;2022-09-09T02:39:05;3.28;;;2.13;;
20468;SDS011;10393;52.460;13.322;2022-09-09T02:40:49;2.63;;;2.22;;
20468;SDS011;10393;52.460;13.322;2022-09-09T02:42:31;4.20;;;2.58;;
20468;SDS011;10393;52.460;13.322;2022-09-09T02:44:15;3.53;;;2.47;;
20468;SDS011;10393;52.460;13.322;2022-09-09T02:52:04;6.30;;;2.50;;
20468;SDS011;10393;52.460;13.322;2022-09-09T02:53:21;3.05;;;2.50;;
20468;SDS011;10393;52.460;13.322;2022-09-09T02:55:06;4.43;;;2.58;;
20468;SDS011;10393;52.460;13.322;2022-09-09T02:56:51;7.55;;;2.70;;
20468;SDS011;10393;52.460;13.322;2022-09-09T02:58:37;4.45;;;2.85;;
20468;SDS011;10393;52.460;13.322;2022-09-09T03:00:24;3.80;;;2.38;;
20468;SDS011;10393;52.460;13.322;2022-09-09T03:02:06;3.53;;;2.45;;
20468;SDS011;10393;52.460;13.322;2022-09-09T03:03:49;3.78;;;2.33;;
20468;SDS011;10393;52.460;13.322;2022-09-09T03:05:31;7.00;;;2.20;;
20468;SDS011;10393;52.460;13.322;2022-09-09T03:07:13;4.72;;;2.20;;
20468;SDS011;10393;52.460;13.322;2022-09-09T03:08:55;5.20;;;3.30;;
20468;SDS011;10393;52.460;13.322;2022-09-09T03:10:41;4.25;;;2.38;;
20468;SDS011;10393;52.460;13.322;2022-09-09T03:12:24;3.45;;;2.50;;
20468;SDS011;10393;52.460;13.322;2022-09-09T03:14:06;3.40;;;2.15;;
20468;SDS011;10393;52.460;13.322;2022-09-09T03:15:48;3.83;;;2.53;;
20468;SDS011;10393;52.460;13.322;2022-09-09T03:17:33;3.13;;;1.77;;
20468;SDS011;10393;52.460;13.322;2022-09-09T03:19:14;3.58;;;2.72;;
20468;SDS011;10393;52.460;13.322;2022-09-09T03:20:55;2.88;;;2.63;;
20468;SDS011;10393;52.460;13.322;2022-09-09T03:22:37;11.82;;;3.05;;
20468;SDS011;10393;52.460;13.322;2022-09-09T03:24:19;2.75;;;2.20;;
20468;SDS011;10393;52.460;13.322;2022-09-09T03:26:00;3.58;;;2.25;;
20468;SDS011;10393;52.460;13.322;2022-09-09T03:27:51;3.78;;;2.60;;
20468;SDS011;10393;52.460;13.322;2022-09-09T03:29:35;2.72;;;2.53;;
20468;SDS011;10393;52.460;13.322;2022-09-09T03:31:18;3.33;;;2.50;;
20468;SDS011;10393;52.460;13.322;2022-09-09T03:33:00;3.63;;;2.30;;
20468;SDS011;10393;52.460;13.322;2022-09-09T03:34:45;4.03;;;2.72;;
20468;SDS011;10393;52.460;13.322;2022-09-09T03:36:30;2.97;;;2.20;;
20468;SDS011;10393;52.460;13.322;2022-09-09T03:38:11;6.47;;;2.35;;
20468;SDS011;10393;52.460;13.322;2022-09-09T03:39:52;4.75;;;2.35;;
20468;SDS011;10393;52.460;13.322;2022-09-09T03:41:37;2.60;;;2.20;;
20468;SDS011;10393;52.460;13.322;2022-09-09T03:43:19;3.95;;;2.42;;
20468;SDS011;10393;52.460;13.322;2022-09-09T03:45:01;3.70;;;2.63;;
20468;SDS011;10393;52.460;13.322;2022-09-09T03:46:43;3.33;;;2.25;;
20468;SDS011;10393;52.460;13.322;2022-09-09T03:48:24;3.45;;;2.38;;
20468;SDS011;10393;52.460;13.322;2022-09-09T03:50:07;3.25;;;1.95;;
20468;SDS011;10393;52.460;13.322;2022-09-09T03:51:52;2.95;;;2.20;;
20468;SDS011;10393;52.460;13.322;2022-09-09T03:53:33;3.35;;;2.50;;
20468;SDS011;10393;52.460;13.322;2022-09-09T03:55:16;6.68;;;2.45;;
20468;SDS011;10393;52.460;13.322;2022-09-09T03:56:57;2.38;;;1.98;;
20468;SDS011;10393;52.460;13.322;2022-09-09T03:58:39;2.78;;;2.05;;
20468;SDS011;10393;52.460;13.322;2022-09-09T04:00:22;3.88;;;2.33;;
20468;SDS011;10393;52.460;13.322;2022-09-09T04:02:06;3.13;;;2.13;;
20468;SDS011;10393;52.460;13.322;2022-09-09T04:03:47;4.97;;;2.38;;
20468;SDS011;10393;52.460;13.322;2022-09-09T04:05:28;2.75;;;1.88;;
20468;SDS011;10393;52.460;13.322;2022-09-09T04:07:10;3.38;;;2.20;;
20468;SDS011;10393;52.460;13.322;2022-09-09T04:08:53;2.95;;;2.05;;
20468;SDS011;10393;52.460;13.322;2022-09-09T04:10:36;3.15;;;2.20;;
20468;SDS011;10393;52.460;13.322;2022-09-09T04:12:18;4.75;;;2.33;;
20468;SDS011;10393;52.460;13.322;2022-09-09T04:13:59;5.10;;;2.25;;
20468;SDS011;10393;52.460;13.322;2022-09-09T04:15:42;2.60;;;2.40;;
20468;SDS011;10393;52.460;13.322;2022-09-09T04:17:23;8.35;;;3.55;;
20468;SDS011;10393;52.460;13.322;2022-09-09T04:19:05;4.10;;;2.20;;
20468;SDS011;10393;52.460;13.322;2022-09-09T04:20:48;3.72;;;1.80;;
20468;SDS011;10393;52.460;13.322;2022-09-09T04:22:32;4.55;;;2.38;;
20468;SDS011;10393;52.460;13.322;2022-09-09T04:24:14;2.45;;;2.15;;
20468;SDS011;10393;52.460;13.322;2022-09-09T04:25:57;4.05;;;2.10;;
20468;SDS011;10393;52.460;13.322;2022-09-09T04:27:39;6.00;;;1.75;;
20468;SDS011;10393;52.460;13.322;2022-09-09T04:29:21;4.60;;;1.83;;
20468;SDS011;10393;52.460;13.322;2022-09-09T04:31:09;5.15;;;1.75;;
20468;SDS011;10393;52.460;13.322;2022-09-09T04:32:53;4.10;;;2.08;;
20468;SDS011;10393;52.460;13.322;2022-09-09T04:34:34;3.72;;;1.85;;
20468;SDS011;10393;52.460;13.322;2022-09-09T04:36:16;4.18;;;2.15;;
20468;SDS011;10393;52.460;13.322;2022-09-09T04:37:58;2.88;;;2.03;;
20468;SDS011;10393;52.460;13.322;2022-09-09T04:39:41;5.78;;;2.22;;
20468;SDS011;10393;52.460;13.322;2022-09-09T04:41:22;2.97;;;1.90;;
20468;SDS011;10393;52.460;13.322;2022-09-09T04:43:07;4.88;;;2.13;;
20468;SDS011;10393;52.460;13.322;2022-09-09T04:44:48;2.67;;;1.67;;
20468;SDS011;10393;52.460;13.322;2022-09-09T04:46:30;4.35;;;2.33;;
20468;SDS011;10393;52.460;13.322;2022-09-09T04:48:11;4.15;;;1.50;;
20468;SDS011;10393;52.460;13.322;2022-09-09T04:49:53;2.22;;;1.85;;
20468;SDS011;10393;52.460;13.322;2022-09-09T04:51:34;2.85;;;2.17;;
20468;SDS011;10393;52.460;13.322;2022-09-09T04:53:15;8.25;;;2.25;;
20468;SDS011;10393;52.460;13.322;2022-09-09T04:54:57;6.43;;;2.30;;
20468;SDS011;10393;52.460;13.322;2022-09-09T04:56:38;5.82;;;2.33;;
20468;SDS011;10393;52.460;13.322;2022-09-09T04:58:21;2.58;;;2.03;;
20468;SDS011;10393;52.460;13.322;2022-09-09T05:00:03;5.88;;;2.40;;
20468;SDS011;10393;52.460;13.322;2022-09-09T05:01:49;6.40;;;1.60;;
20468;SDS011;10393;52.460;13.322;2022-09-09T05:03:30;6.72;;;1.17;;
20468;SDS011;10393;52.460;13.322;2022-09-09T05:05:11;4.25;;;1.88;;
20468;SDS011;10393;52.460;13.322;2022-09-09T05:06:53;1.40;;;1.20;;
20468;SDS011;10393;52.460;13.322;2022-09-09T05:08:35;3.22;;;1.65;;
20468;SDS011;10393;52.460;13.322;2022-09-09T05:10:17;5.57;;;1.70;;
20468;SDS011;10393;52.460;13.322;2022-09-09T05:11:59;3.38;;;1.80;;
20468;SDS011;10393;52.460;13.322;2022-09-09T05:13:45;2.35;;;1.63;;
20468;SDS011;10393;52.460;13.322;2022-09-09T05:15:27;4.47;;;1.85;;
20468;SDS011;10393;52.460;13.322;2022-09-09T05:17:09;6.28;;;2.05;;
20468;SDS011;10393;52.460;13.322;2022-09-09T05:18:52;2.17;;;1.58;;
20468;SDS011;10393;52.460;13.322;2022-09-09T05:20:34;4.75;;;2.67;;
20468;SDS011;10393;52.460;13.322;2022-09-09T05:22:19;2.63;;;2.00;;
20468;SDS011;10393;52.460;13.322;2022-09-09T05:24:03;3.60;;;1.75;;
20468;SDS011;10393;52.460;13.322;2022-09-09T05:25:53;3.58;;;1.83;;
20468;SDS011;10393;52.460;13.322;2022-09-09T05:27:35;3.45;;;1.70;;
20468;SDS011;10393;52.460;13.322;2022-09-09T05:29:16;4.45;;;1.92;;
20468;SDS011;10393;52.460;13.322;2022-09-09T05:31:03;2.00;;;1.80;;
20468;SDS011;10393;52.460;13.322;2022-09-09T05:32:47;134.90;;;50.67;;
20468;SDS011;10393;52.460;13.322;2022-09-09T05:34:31;84.47;;;41.28;;
20468;SDS011;10393;52.460;13.322;2022-09-09T05:36:13;25.15;;;13.13;;
20468;SDS011;10393;52.460;13.322;2022-09-09T05:37:58;4.60;;;3.28;;
20468;SDS011;10393;52.460;13.322;2022-09-09T05:39:40;2.75;;;1.70;;
20468;SDS011;10393;52.460;13.322;2022-09-09T05:41:22;2.85;;;2.25;;
20468;SDS011;10393;52.460;13.322;2022-09-09T05:43:04;4.00;;;1.95;;
20468;SDS011;10393;52.460;13.322;2022-09-09T05:44:45;2.20;;;2.00;;
20468;SDS011;10393;52.460;13.322;2022-09-09T05:46:27;2.50;;;1.65;;
20468;SDS011;10393;52.460;13.322;2022-09-09T05:48:09;1.77;;;1.67;;
20468;SDS011;10393;52.460;13.322;2022-09-09T05:49:51;6.68;;;2.05;;
20468;SDS011;10393;52.460;13.322;2022-09-09T05:51:32;3.30;;;1.67;;
20468;SDS011;10393;52.460;13.322;2022-09-09T05:53:25;3.22;;;1.73;;
20468;SDS011;10393;52.460;13.322;2022-09-09T05:55:06;3.65;;;2.40;;
20468;SDS011;10393;52.460;13.322;2022-09-09T05:56:48;1.83;;;1.50;;
20468;SDS011;10393;52.460;13.322;2022-09-09T05:58:34;1.95;;;1.60;;
20468;SDS011;10393;52.460;13.322;2022-09-09T06:00:17;2.67;;;1.77;;
20468;SDS011;10393;52.460;13.322;2022-09-09T06:02:00;4.70;;;2.17;;
20468;SDS011;10393;52.460;13.322;2022-09-09T06:03:49;3.92;;;1.60;;
20468;SDS011;10393;52.460;13.322;2022-09-09T06:05:30;3.60;;;1.52;;
20468;SDS011;10393;52.460;13.322;2022-09-09T06:07:13;3.08;;;1.60;;
20468;SDS011;10393;52.460;13.322;2022-09-09T06:08:55;2.45;;;1.73;;
20468;SDS011;10393;52.460;13.322;2022-09-09T06:10:46;1.50;;;1.40;;
20468;SDS011;10393;52.460;13.322;2022-09-09T06:12:27;1.55;;;1.45;;
20468;SDS011;10393;52.460;13.322;2022-09-09T06:20:56;2.45;;;1.90;;
20468;SDS011;10393;52.460;13.322;2022-09-09T06:22:39;2.55;;;1.67;;
20468;SDS011;10393;52.460;13.322;2022-09-09T06:24:21;9.00;;;1.95;;
20468;SDS011;10393;52.460;13.322;2022-09-09T06:27:48;1.70;;;1.60;;
20468;SDS011;10393;52.460;13.322;2022-09-09T06:29:30;1.27;;;1.10;;
20468;SDS011;10393;52.460;13.322;2022-09-09T06:31:12;1.45;;;1.00;;
20468;SDS011;10393;52.460;13.322;2022-09-09T06:32:55;2.55;;;1.20;;
20468;SDS011;10393;52.460;13.322;2022-09-09T06:34:38;1.50;;;1.20;;
20468;SDS011;10393;52.460;13.322;2022-09-09T06:36:21;1.42;;;1.23;;
20468;SDS011;10393;52.460;13.322;2022-09-09T06:38:03;1.70;;;0.90;;
20468;SDS011;10393;52.460;13.322;2022-09-09T06:39:46;1.65;;;1.35;;
20468;SDS011;10393;52.460;13.322;2022-09-09T06:41:29;3.33;;;1.00;;
20468;SDS011;10393;52.460;13.322;2022-09-09T06:43:11;1.80;;;1.20;;
20468;SDS011;10393;52.460;13.322;2022-09-09T06:44:59;0.85;;;0.85;;
20468;SDS011;10393;52.460;13.322;2022-09-09T06:46:48;1.00;;;0.90;;
20468;SDS011;10393;52.460;13.322;2022-09-09T06:48:30;1.73;;;1.25;;
20468;SDS011;10393;52.460;13.322;2022-09-09T06:50:12;3.10;;;1.58;;
20468;SDS011;10393;52.460;13.322;2022-09-09T06:51:55;1.65;;;0.95;;
20468;SDS011;10393;52.460;13.322;2022-09-09T06:53:37;0.85;;;0.85;;
20468;SDS011;10393;52.460;13.322;2022-09-09T06:55:18;4.80;;;1.13;;
20468;SDS011;10393;52.460;13.322;2022-09-09T06:57:01;3.22;;;1.27;;
20468;SDS011;10393;52.460;13.322;2022-09-09T06:58:43;5.95;;;1.70;;
20468;SDS011;10393;52.460;13.322;2022-09-09T07:00:28;3.42;;;1.30;;
20468;SDS011;10393;52.460;13.322;2022-09-09T07:02:10;2.33;;;1.30;;
20468;SDS011;10393;52.460;13.322;2022-09-09T07:03:53;2.13;;;0.95;;
20468;SDS011;10393;52.460;13.322;2022-09-09T07:05:35;1.63;;;0.95;;
20468;SDS011;10393;52.460;13.322;2022-09-09T07:07:17;1.63;;;1.17;;
20468;SDS011;10393;52.460;13.322;2022-09-09T07:08:59;1.55;;;1.10;;
20468;SDS011;10393;52.460;13.322;2022-09-09T07:10:42;2.25;;;1.10;;
20468;SDS011;10393;52.460;13.322;2022-09-09T07:12:24;1.10;;;1.00;;
20468;SDS011;10393;52.460;13.322;2022-09-09T07:14:11;1.27;;;1.02;;
20468;SDS011;10393;52.460;13.322;2022-09-09T07:15:54;1.48;;;0.90;;
20468;SDS011;10393;52.460;13.322;2022-09-09T07:17:35;3.20;;;1.50;;
20468;SDS011;10393;52.460;13.322;2022-09-09T07:19:17;1.20;;;1.10;;
20468;SDS011;10393;52.460;13.322;2022-09-09T07:21:00;2.63;;;1.10;;
20468;SDS011;10393;52.460;13.322;2022-09-09T07:22:42;2.78;;;0.90;;
20468;SDS011;10393;52.460;13.322;2022-09-09T07:24:24;3.10;;;0.85;;
20468;SDS011;10393;52.460;13.322;2022-09-09T07:26:11;1.00;;;0.90;;
20468;SDS011;10393;52.460;13.322;2022-09-09T07:27:53;0.80;;;0.80;;
20468;SDS011;10393;52.460;13.322;2022-09-09T07:29:34;0.70;;;0.70;;
20468;SDS011;10393;52.460;13.322;2022-09-09T07:31:20;1.13;;;0.80;;
20468;SDS011;10393;52.460;13.322;2022-09-09T07:33:01;1.30;;;1.00;;
20468;SDS011;10393;52.460;13.322;2022-09-09T07:34:44;6.15;;;1.10;;
20468;SDS011;10393;52.460;13.322;2022-09-09T07:36:27;2.58;;;1.10;;
20468;SDS011;10393;52.460;13.322;2022-09-09T07:38:10;2.35;;;0.82;;
20468;SDS011;10393;52.460;13.322;2022-09-09T07:39:52;1.85;;;0.90;;
20468;SDS011;10393;52.460;13.322;2022-09-09T07:41:34;2.15;;;0.90;;
20468;SDS011;10393;52.460;13.322;2022-09-09T07:43:16;4.97;;;1.05;;
20468;SDS011;10393;52.460;13.322;2022-09-09T07:44:59;1.52;;;0.80;;
20468;SDS011;10393;52.460;13.322;2022-09-09T07:46:41;1.20;;;0.80;;
20468;SDS011;10393;52.460;13.322;2022-09-09T07:48:24;1.63;;;0.70;;
20468;SDS011;10393;52.460;13.322;2022-09-09T07:50:06;3.53;;;0.95;;
20468;SDS011;10393;52.460;13.322;2022-09-09T07:51:49;4.47;;;1.38;;
20468;SDS011;10393;52.460;13.322;2022-09-09T07:53:32;4.03;;;1.83;;
20468;SDS011;10393;52.460;13.322;2022-09-09T07:55:13;1.40;;;0.90;;
20468;SDS011;10393;52.460;13.322;2022-09-09T07:56:55;1.27;;;0.90;;
20468;SDS011;10393;52.460;13.322;2022-09-09T07:58:40;2.58;;;0.90;;
20468;SDS011;10393;52.460;13.322;2022-09-09T08:00:21;1.65;;;0.65;;
20468;SDS011;10393;52.460;13.322;2022-09-09T08:02:08;2.72;;;0.90;;
20468;SDS011;10393;52.460;13.322;2022-09-09T08:03:53;1.33;;;0.70;;
20468;SDS011;10393;52.460;13.322;2022-09-09T08:05:35;2.15;;;0.70;;
20468;SDS011;10393;52.460;13.322;2022-09-09T08:07:19;2.17;;;0.60;;
20468;SDS011;10393;52.460;13.322;2022-09-09T08:09:07;0.68;;;0.63;;
20468;SDS011;10393;52.460;13.322;2022-09-09T08:10:50;1.98;;;0.90;;
20468;SDS011;10393;52.460;13.322;2022-09-09T08:12:33;3.10;;;0.60;;
20468;SDS011;10393;52.460;13.322;2022-09-09T08:14:15;1.20;;;0.65;;
20468;SDS011;10393;52.460;13.322;2022-09-09T08:16:03;1.75;;;0.68;;
20468;SDS011;10393;52.460;13.322;2022-09-09T08:17:44;1.65;;;0.60;;
20468;SDS011;10393;52.460;13.322;2022-09-09T08:19:27;1.80;;;0.60;;
20468;SDS011;10393;52.460;13.322;2022-09-09T08:21:14;2.00;;;0.68;;
20468;SDS011;10393;52.460;13.322;2022-09-09T08:22:57;2.47;;;0.70;;
20468;SDS011;10393;52.460;13.322;2022-09-09T08:24:39;1.08;;;0.57;;
20468;SDS011;10393;52.460;13.322;2022-09-09T08:26:23;2.25;;;0.75;;
20468;SDS011;10393;52.460;13.322;2022-09-09T08:28:04;1.52;;;0.65;;
20468;SDS011;10393;52.460;13.322;2022-09-09T08:29:46;2.22;;;0.60;;
20468;SDS011;10393;52.460;13.322;2022-09-09T08:31:29;3.58;;;0.88;;
20468;SDS011;10393;52.460;13.322;2022-09-09T08:33:11;1.58;;;0.70;;
20468;SDS011;10393;52.460;13.322;2022-09-09T08:34:52;0.90;;;0.68;;
20468;SDS011;10393;52.460;13.322;2022-09-09T08:36:37;0.70;;;0.60;;
20468;SDS011;10393;52.460;13.322;2022-09-09T08:38:18;3.95;;;0.70;;
20468;SDS011;10393;52.460;13.322;2022-09-09T08:40:01;0.40;;;0.40;;
20468;SDS011;10393;52.460;13.322;2022-09-09T08:43:43;1.00;;;0.68;;
20468;SDS011;10393;52.460;13.322;2022-09-09T08:45:48;0.82;;;0.50;;
20468;SDS011;10393;52.460;13.322;2022-09-09T08:49:43;4.25;;;1.60;;
20468;SDS011;10393;52.460;13.322;2022-09-09T08:51:34;4.00;;;1.17;;
20468;SDS011;10393;52.460;13.322;2022-09-09T08:53:26;1.52;;;0.70;;
20468;SDS011;10393;52.460;13.322;2022-09-09T08:56:57;1.73;;;1.50;;
20468;SDS011;10393;52.460;13.322;2022-09-09T08:58:44;2.25;;;0.82;;
20468;SDS011;10393;52.460;13.322;2022-09-09T09:00:30;1.65;;;0.63;;
20468;SDS011;10393;52.460;13.322;2022-09-09T09:06:45;2.63;;;1.15;;
20468;SDS011;10393;52.460;13.322;2022-09-09T09:08:20;3.88;;;0.73;;
20468;SDS011;10393;52.460;13.322;2022-09-09T09:11:57;4.53;;;0.90;;
20468;SDS011;10393;52.460;13.322;2022-09-09T09:14:07;3.25;;;0.75;;
20468;SDS011;10393;52.460;13.322;2022-09-09T09:15:52;2.03;;;0.60;;
20468;SDS011;10393;52.460;13.322;2022-09-09T09:17:34;1.35;;;0.80;;
20468;SDS011;10393;52.460;13.322;2022-09-09T09:19:18;2.70;;;0.80;;
20468;SDS011;10393;52.460;13.322;2022-09-09T09:21:08;2.30;;;0.65;;
20468;SDS011;10393;52.460;13.322;2022-09-09T09:22:55;1.42;;;0.70;;
20468;SDS011;10393;52.460;13.322;2022-09-09T09:24:47;1.55;;;0.70;;
20468;SDS011;10393;52.460;13.322;2022-09-09T09:26:33;3.05;;;0.60;;
20468;SDS011;10393;52.460;13.322;2022-09-09T09:28:17;3.60;;;0.60;;
20468;SDS011;10393;52.460;13.322;2022-09-09T09:30:10;3.67;;;1.00;;
20468;SDS011;10393;52.460;13.322;2022-09-09T09:31:55;1.63;;;0.85;;
20468;SDS011;10393;52.460;13.322;2022-09-09T09:35:30;4.05;;;0.70;;
20468;SDS011;10393;52.460;13.322;2022-09-09T09:37:13;0.60;;;0.60;;
20468;SDS011;10393;52.460;13.322;2022-09-09T09:39:00;1.65;;;0.50;;
20468;SDS011;10393;52.460;13.322;2022-09-09T09:40:53;1.80;;;0.52;;
20468;SDS011;10393;52.460;13.322;2022-09-09T09:42:38;1.25;;;0.70;;
20468;SDS011;10393;52.460;13.322;2022-09-09T09:44:28;3.40;;;0.80;;
20468;SDS011;10393;52.460;13.322;2022-09-09T09:46:19;0.75;;;0.50;;
20468;SDS011;10393;52.460;13.322;2022-09-09T09:48:02;1.65;;;0.85;;
20468;SDS011;10393;52.460;13.322;2022-09-09T09:49:54;2.25;;;0.47;;
20468;SDS011;10393;52.460;13.322;2022-09-09T09:51:37;6.10;;;0.80;;
20468;SDS011;10393;52.460;13.322;2022-09-09T09:53:25;0.70;;;0.52;;
20468;SDS011;10393;52.460;13.322;2022-09-09T09:55:12;3.03;;;0.70;;
20468;SDS011;10393;52.460;13.322;2022-09-09T09:56:55;3.47;;;0.50;;
20468;SDS011;10393;52.460;13.322;2022-09-09T10:00:31;0.68;;;0.50;;
20468;SDS011;10393;52.460;13.322;2022-09-09T10:02:23;0.80;;;0.50;;
20468;SDS011;10393;52.460;13.322;2022-09-09T10:04:17;1.55;;;0.70;;
20468;SDS011;10393;52.460;13.322;2022-09-09T10:06:00;1.95;;;0.77;;
20468;SDS011;10393;52.460;13.322;2022-09-09T10:07:42;2.25;;;0.82;;
20468;SDS011;10393;52.460;13.322;2022-09-09T10:09:28;0.40;;;0.40;;
20468;SDS011;10393;52.460;13.322;2022-09-09T10:16:52;1.40;;;0.47;;
20468;SDS011;10393;52.460;13.322;2022-09-09T10:18:37;2.35;;;0.70;;
20468;SDS011;10393;52.460;13.322;2022-09-09T10:25:52;0.77;;;0.50;;
20468;SDS011;10393;52.460;13.322;2022-09-09T10:27:38;1.13;;;0.68;;
20468;SDS011;10393;52.460;13.322;2022-09-09T10:36:34;6.55;;;1.13;;
20468;SDS011;10393;52.460;13.322;2022-09-09T10:42:12;3.70;;;0.52;;
20468;SDS011;10393;52.460;13.322;2022-09-09T10:47:26;2.55;;;0.60;;
20468;SDS011;10393;52.460;13.322;2022-09-09T10:55:10;4.50;;;0.82;;
20468;SDS011;10393;52.460;13.322;2022-09-09T10:56:55;1.27;;;0.50;;
20468;SDS011;10393;52.460;13.322;2022-09-09T10:58:41;0.95;;;0.63;;
20468;SDS011;10393;52.460;13.322;2022-09-09T11:00:24;0.40;;;0.40;;
20468;SDS011;10393;52.460;13.322;2022-09-09T11:02:26;3.92;;;0.30;;
20468;SDS011;10393;52.460;13.322;2022-09-09T11:05:57;1.38;;;0.47;;
20468;SDS011;10393;52.460;13.322;2022-09-09T11:07:44;4.95;;;0.40;;
20468;SDS011;10393;52.460;13.322;2022-09-09T11:09:28;2.38;;;0.55;;
20468;SDS011;10393;52.460;13.322;2022-09-09T11:13:00;2.03;;;0.60;;
20468;SDS011;10393;52.460;13.322;2022-09-09T11:16:41;0.63;;;0.40;;
20468;SDS011;10393;52.460;13.322;2022-09-09T11:18:25;0.38;;;0.30;;
20468;SDS011;10393;52.460;13.322;2022-09-09T11:20:12;2.78;;;0.40;;
20468;SDS011;10393;52.460;13.322;2022-09-09T11:21:55;2.03;;;0.50;;
20468;SDS011;10393;52.460;13.322;2022-09-09T11:23:39;1.70;;;0.80;;
20468;SDS011;10393;52.460;13.322;2022-09-09T11:27:26;0.95;;;0.77;;
20468;SDS011;10393;52.460;13.322;2022-09-09T11:33:08;2.95;;;0.88;;
20468;SDS011;10393;52.460;13.322;2022-09-09T11:34:56;8.93;;;0.60;;
20468;SDS011;10393;52.460;13.322;2022-09-09T11:36:53;0.82;;;0.35;;
20468;SDS011;10393;52.460;13.322;2022-09-09T11:40:53;6.95;;;0.45;;
20468;SDS011;10393;52.460;13.322;2022-09-09T11:42:35;0.88;;;0.60;;
20468;SDS011;10393;52.460;13.322;2022-09-09T11:44:18;6.78;;;0.60;;
20468;SDS011;10393;52.460;13.322;2022-09-09T11:46:01;2.15;;;0.40;;
20468;SDS011;10393;52.460;13.322;2022-09-09T11:47:50;1.95;;;0.50;;
20468;SDS011;10393;52.460;13.322;2022-09-09T11:54:54;0.60;;;0.60;;
20468;SDS011;10393;52.460;13.322;2022-09-09T11:58:24;3.47;;;0.50;;
20468;SDS011;10393;52.460;13.322;2022-09-09T12:00:05;0.57;;;0.40;;
20468;SDS011;10393;52.460;13.322;2022-09-09T12:01:55;0.82;;;0.60;;
20468;SDS011;10393;52.460;13.322;2022-09-09T12:03:41;4.03;;;0.70;;
20468;SDS011;10393;52.460;13.322;2022-09-09T12:05:24;4.43;;;0.50;;
20468;SDS011;10393;52.460;13.322;2022-09-09T12:09:15;2.58;;;0.25;;
20468;SDS011;10393;52.460;13.322;2022-09-09T12:10:58;1.33;;;0.45;;
20468;SDS011;10393;52.460;13.322;2022-09-09T12:12:40;1.17;;;0.47;;
20468;SDS011;10393;52.460;13.322;2022-09-09T12:14:22;1.13;;;0.40;;
20468;SDS011;10393;52.460;13.322;2022-09-09T12:16:32;2.58;;;0.80;;
20468;SDS011;10393;52.460;13.322;2022-09-09T12:18:15;1.25;;;0.40;;
20468;SDS011;10393;52.460;13.322;2022-09-09T12:20:49;1.02;;;0.20;;
20468;SDS011;10393;52.460;13.322;2022-09-09T12:22:09;4.25;;;0.50;;
20468;SDS011;10393;52.460;13.322;2022-09-09T12:23:55;2.78;;;0.80;;
20468;SDS011;10393;52.460;13.322;2022-09-09T12:31:08;2.97;;;0.35;;
20468;SDS011;10393;52.460;13.322;2022-09-09T12:33:00;2.13;;;0.45;;
20468;SDS011;10393;52.460;13.322;2022-09-09T12:36:51;1.08;;;0.47;;